sensor_id;sensor_type;location;lat;lon;timestamp;pressure;altitude;pressure_sealevel;temperature;humidity
50087;BME280;35967;50.718;7.050;2022-10-16T00:02:30;100362.47;;;17.24;77.68
50087;BME280;35967;50.718;7.050;2022-10-16T00:12:34;100366.66;;;17.27;77.62
50087;BME280;35967;50.718;7.050;2022-10-16T00:22:37;100365.47;;;17.16;77.71
50087;BME280;35967;50.718;7.050;2022-10-16T00:32:42;100366.91;;;17.22;77.11
50087;BME280;35967;50.718;7.050;2022-10-16T00:42:45;100388.16;;;17.14;77.61
50087;BME280;35967;50.718;7.050;2022-10-16T00:52:51;100387.53;;;17.09;77.20
50087;BME280;35967;50.718;7.050;2022-10-16T01:02:56;100383.50;;;17.03;77.37
50087;BME280;35967;50.718;7.050;2022-10-16T01:13:05;100369.75;;;17.01;77.13
50087;BME280;35967;50.718;7.050;2022-10-16T01:23:20;100387.44;;;16.95;77.20
50087;BME280;35967;50.718;7.050;2022-10-16T01:33:29;100385.81;;;16.92;76.84
50087;BME280;35967;50.718;7.050;2022-10-16T01:43:36;100395.00;;;16.82;76.74
50087;BME280;35967;50.718;7.050;2022-10-16T01:53:43;100408.56;;;16.71;77.07
50087;BME280;35967;50.718;7.050;2022-10-16T02:03:53;100398.28;;;16.69;78.14
50087;BME280;35967;50.718;7.050;2022-10-16T02:14:02;100412.56;;;16.61;78.94
50087;BME280;35967;50.718;7.050;2022-10-16T02:24:10;100402.97;;;16.79;78.17
50087;BME280;35967;50.718;7.050;2022-10-16T02:34:18;100404.88;;;16.93;77.67
50087;BME280;35967;50.718;7.050;2022-10-16T02:44:23;100424.06;;;16.90;77.29
50087;BME280;35967;50.718;7.050;2022-10-16T02:54:28;100411.19;;;16.87;77.96
50087;BME280;35967;50.718;7.050;2022-10-16T03:04:31;100416.91;;;16.78;77.62
50087;BME280;35967;50.718;7.050;2022-10-16T03:14:35;100390.66;;;16.82;77.01
50087;BME280;35967;50.718;7.050;2022-10-16T03:24:38;100411.84;;;16.75;76.71
50087;BME280;35967;50.718;7.050;2022-10-16T03:34:42;100395.50;;;16.72;76.46
50087;BME280;35967;50.718;7.050;2022-10-16T03:44:45;100406.31;;;16.65;76.17
50087;BME280;35967;50.718;7.050;2022-10-16T03:54:50;100416.13;;;16.76;75.52
50087;BME280;35967;50.718;7.050;2022-10-16T04:04:53;100432.97;;;16.68;75.89
50087;BME280;35967;50.718;7.050;2022-10-16T04:14:57;100460.69;;;16.68;76.13
50087;BME280;35967;50.718;7.050;2022-10-16T04:25:00;100444.44;;;16.64;76.52
50087;BME280;35967;50.718;7.050;2022-10-16T04:35:05;100470.63;;;16.77;75.79
50087;BME280;35967;50.718;7.050;2022-10-16T04:45:08;100477.59;;;16.77;76.31
50087;BME280;35967;50.718;7.050;2022-10-16T04:55:19;100476.06;;;16.72;76.38
50087;BME280;35967;50.718;7.050;2022-10-16T05:05:22;100501.00;;;16.77;76.16
50087;BME280;35967;50.718;7.050;2022-10-16T05:15:26;100490.88;;;16.70;76.79
50087;BME280;35967;50.718;7.050;2022-10-16T05:25:29;100490.28;;;16.65;77.31
50087;BME280;35967;50.718;7.050;2022-10-16T05:35:33;100503.28;;;16.65;77.88
50087;BME280;35967;50.718;7.050;2022-10-16T05:45:36;100491.97;;;16.66;77.71
50087;BME280;35967;50.718;7.050;2022-10-16T05:55:40;100522.34;;;16.66;78.10
50087;BME280;35967;50.718;7.050;2022-10-16T06:05:43;100522.63;;;16.60;78.81
50087;BME280;35967;50.718;7.050;2022-10-16T06:15:47;100558.03;;;16.62;79.19
50087;BME280;35967;50.718;7.050;2022-10-16T06:25:50;100557.63;;;16.52;79.92
50087;BME280;35967;50.718;7.050;2022-10-16T06:36:00;100573.53;;;16.64;79.22
50087;BME280;35967;50.718;7.050;2022-10-16T06:46:04;100588.59;;;16.57;79.77
50087;BME280;35967;50.718;7.050;2022-10-16T06:56:11;100617.03;;;16.60;79.97
50087;BME280;35967;50.718;7.050;2022-10-16T07:06:17;100623.44;;;16.70;80.41
50087;BME280;35967;50.718;7.050;2022-10-16T07:16:23;100650.16;;;16.74;80.76
50087;BME280;35967;50.718;7.050;2022-10-16T07:26:28;100661.25;;;16.78;80.88
50087;BME280;35967;50.718;7.050;2022-10-16T07:36:32;100691.28;;;16.83;80.67
50087;BME280;35967;50.718;7.050;2022-10-16T07:46:36;100703.94;;;16.91;80.49
50087;BME280;35967;50.718;7.050;2022-10-16T07:56:40;100715.06;;;16.95;80.98
50087;BME280;35967;50.718;7.050;2022-10-16T08:06:44;100729.84;;;16.94;81.25
50087;BME280;35967;50.718;7.050;2022-10-16T08:16:49;100733.03;;;16.99;80.06
50087;BME280;35967;50.718;7.050;2022-10-16T08:26:53;100746.81;;;17.01;80.89
50087;BME280;35967;50.718;7.050;2022-10-16T08:36:57;100759.56;;;17.25;80.02
50087;BME280;35967;50.718;7.050;2022-10-16T08:47:06;100770.75;;;17.45;78.85
50087;BME280;35967;50.718;7.050;2022-10-16T08:57:14;100785.75;;;17.57;77.97
50087;BME280;35967;50.718;7.050;2022-10-16T09:07:30;100782.44;;;17.71;76.01
50087;BME280;35967;50.718;7.050;2022-10-16T09:17:44;100791.25;;;17.86;75.27
50087;BME280;35967;50.718;7.050;2022-10-16T09:27:52;100802.38;;;18.07;73.91
50087;BME280;35967;50.718;7.050;2022-10-16T09:37:57;100804.22;;;18.39;73.11
50087;BME280;35967;50.718;7.050;2022-10-16T09:48:10;100800.16;;;18.67;70.24
50087;BME280;35967;50.718;7.050;2022-10-16T09:58:15;100803.91;;;18.95;68.26
50087;BME280;35967;50.718;7.050;2022-10-16T10:08:19;100785.78;;;19.07;65.18
50087;BME280;35967;50.718;7.050;2022-10-16T10:18:26;100784.75;;;19.26;62.18
50087;BME280;35967;50.718;7.050;2022-10-16T10:28:45;100777.91;;;19.70;60.10
50087;BME280;35967;50.718;7.050;2022-10-16T10:38:55;100791.50;;;19.91;60.26
50087;BME280;35967;50.718;7.050;2022-10-16T10:49:19;100778.25;;;20.09;59.12
50087;BME280;35967;50.718;7.050;2022-10-16T10:59:36;100780.22;;;20.34;58.35
50087;BME280;35967;50.718;7.050;2022-10-16T11:09:44;100798.78;;;21.15;55.45
50087;BME280;35967;50.718;7.050;2022-10-16T11:19:53;100784.75;;;20.88;55.07
50087;BME280;35967;50.718;7.050;2022-10-16T11:30:02;100794.41;;;20.44;56.80
50087;BME280;35967;50.718;7.050;2022-10-16T11:40:19;100791.69;;;20.46;56.75
50087;BME280;35967;50.718;7.050;2022-10-16T11:50:28;100805.44;;;20.06;57.64
50087;BME280;35967;50.718;7.050;2022-10-16T12:00:38;100802.72;;;20.08;60.89
50087;BME280;35967;50.718;7.050;2022-10-16T12:10:44;100800.75;;;19.97;59.11
50087;BME280;35967;50.718;7.050;2022-10-16T12:20:55;100797.97;;;20.14;60.13
50087;BME280;35967;50.718;7.050;2022-10-16T12:31:02;100800.09;;;20.22;60.81
50087;BME280;35967;50.718;7.050;2022-10-16T12:41:08;100805.59;;;20.17;60.78
50087;BME280;35967;50.718;7.050;2022-10-16T12:51:22;100785.34;;;20.36;60.57
50087;BME280;35967;50.718;7.050;2022-10-16T13:01:42;100780.88;;;20.38;60.82
50087;BME280;35967;50.718;7.050;2022-10-16T13:11:58;100800.84;;;20.39;60.55
50087;BME280;35967;50.718;7.050;2022-10-16T13:22:12;100794.94;;;20.49;60.78
50087;BME280;35967;50.718;7.050;2022-10-16T13:32:19;100802.34;;;20.57;59.82
50087;BME280;35967;50.718;7.050;2022-10-16T13:42:26;100801.69;;;20.54;59.94
50087;BME280;35967;50.718;7.050;2022-10-16T13:52:30;100805.69;;;20.59;60.11
50087;BME280;35967;50.718;7.050;2022-10-16T14:02:37;100810.09;;;20.59;60.46
50087;BME280;35967;50.718;7.050;2022-10-16T14:12:42;100811.00;;;20.58;60.59
50087;BME280;35967;50.718;7.050;2022-10-16T14:22:46;100805.25;;;20.53;62.48
50087;BME280;35967;50.718;7.050;2022-10-16T14:32:54;100798.97;;;20.55;62.31
50087;BME280;35967;50.718;7.050;2022-10-16T14:43:00;100802.41;;;20.56;62.46
50087;BME280;35967;50.718;7.050;2022-10-16T14:53:08;100804.75;;;20.46;62.40
50087;BME280;35967;50.718;7.050;2022-10-16T15:03:15;100812.41;;;20.63;62.19
50087;BME280;35967;50.718;7.050;2022-10-16T15:13:18;100809.03;;;20.61;62.00
50087;BME280;35967;50.718;7.050;2022-10-16T15:23:22;100820.00;;;20.54;62.48
50087;BME280;35967;50.718;7.050;2022-10-16T15:33:27;100822.31;;;20.29;64.04
50087;BME280;35967;50.718;7.050;2022-10-16T15:43:41;100810.19;;;20.28;64.15
50087;BME280;35967;50.718;7.050;2022-10-16T15:53:46;100819.81;;;20.28;65.13
50087;BME280;35967;50.718;7.050;2022-10-16T16:03:54;100822.59;;;20.25;66.99
50087;BME280;35967;50.718;7.050;2022-10-16T16:13:58;100815.78;;;20.22;67.52
50087;BME280;35967;50.718;7.050;2022-10-16T16:24:02;100813.91;;;20.10;68.93
50087;BME280;35967;50.718;7.050;2022-10-16T16:34:10;100824.19;;;20.13;68.96
50087;BME280;35967;50.718;7.050;2022-10-16T16:44:15;100829.88;;;20.05;70.05
50087;BME280;35967;50.718;7.050;2022-10-16T16:54:18;100828.72;;;19.95;71.80
50087;BME280;35967;50.718;7.050;2022-10-16T17:04:23;100848.53;;;19.99;72.78
50087;BME280;35967;50.718;7.050;2022-10-16T17:14:26;100856.66;;;19.78;73.90
50087;BME280;35967;50.718;7.050;2022-10-16T17:24:30;100854.28;;;19.74;74.16
50087;BME280;35967;50.718;7.050;2022-10-16T17:34:33;100863.66;;;19.78;73.82
50087;BME280;35967;50.718;7.050;2022-10-16T17:44:38;100870.44;;;19.66;74.60
50087;BME280;35967;50.718;7.050;2022-10-16T17:54:41;100871.69;;;19.59;74.89
50087;BME280;35967;50.718;7.050;2022-10-16T18:04:46;100876.56;;;19.65;74.88
50087;BME280;35967;50.718;7.050;2022-10-16T18:14:49;100880.22;;;19.62;75.06
50087;BME280;35967;50.718;7.050;2022-10-16T18:24:55;100878.94;;;19.53;75.60
50087;BME280;35967;50.718;7.050;2022-10-16T18:34:59;100878.53;;;19.45;76.44
50087;BME280;35967;50.718;7.050;2022-10-16T18:45:04;100886.63;;;19.41;76.92
50087;BME280;35967;50.718;7.050;2022-10-16T18:55:08;100878.88;;;19.39;76.74
50087;BME280;35967;50.718;7.050;2022-10-16T19:05:12;100886.03;;;19.19;78.43
50087;BME280;35967;50.718;7.050;2022-10-16T19:15:16;100890.59;;;19.32;78.15
50087;BME280;35967;50.718;7.050;2022-10-16T19:25:21;100903.44;;;19.35;78.82
50087;BME280;35967;50.718;7.050;2022-10-16T19:35:24;100909.44;;;19.21;79.83
50087;BME280;35967;50.718;7.050;2022-10-16T19:45:29;100909.44;;;19.21;80.38
50087;BME280;35967;50.718;7.050;2022-10-16T19:55:32;100915.34;;;19.25;80.59
50087;BME280;35967;50.718;7.050;2022-10-16T20:05:36;100914.22;;;19.29;80.27
50087;BME280;35967;50.718;7.050;2022-10-16T20:15:39;100921.66;;;19.36;80.23
50087;BME280;35967;50.718;7.050;2022-10-16T20:25:46;100932.50;;;19.29;81.46
50087;BME280;35967;50.718;7.050;2022-10-16T20:35:50;100937.47;;;19.33;81.39
50087;BME280;35967;50.718;7.050;2022-10-16T20:46:02;100937.63;;;19.14;80.48
50087;BME280;35967;50.718;7.050;2022-10-16T20:56:06;100941.06;;;18.99;80.06
50087;BME280;35967;50.718;7.050;2022-10-16T21:06:11;100934.47;;;18.91;80.09
50087;BME280;35967;50.718;7.050;2022-10-16T21:16:14;100929.44;;;18.71;79.37
50087;BME280;35967;50.718;7.050;2022-10-16T21:26:20;100928.00;;;18.65;79.40
50087;BME280;35967;50.718;7.050;2022-10-16T21:36:28;100924.94;;;18.57;78.78
50087;BME280;35967;50.718;7.050;2022-10-16T21:46:34;100927.09;;;18.49;78.76
50087;BME280;35967;50.718;7.050;2022-10-16T21:56:38;100928.25;;;18.08;79.58
50087;BME280;35967;50.718;7.050;2022-10-16T22:06:42;100932.53;;;18.09;78.66
50087;BME280;35967;50.718;7.050;2022-10-16T22:16:48;100939.53;;;18.26;79.17
50087;BME280;35967;50.718;7.050;2022-10-16T22:26:52;100936.06;;;18.25;78.18
50087;BME280;35967;50.718;7.050;2022-10-16T22:36:55;100936.06;;;18.08;78.39
50087;BME280;35967;50.718;7.050;2022-10-16T22:46:59;100936.59;;;17.97;78.02
50087;BME280;35967;50.718;7.050;2022-10-16T22:57:02;100944.28;;;17.81;78.37
50087;BME280;35967;50.718;7.050;2022-10-16T23:07:06;100945.06;;;17.64;79.28
50087;BME280;35967;50.718;7.050;2022-10-16T23:17:09;100935.88;;;17.57;80.50
50087;BME280;35967;50.718;7.050;2022-10-16T23:27:13;100932.84;;;18.03;83.33
50087;BME280;35967;50.718;7.050;2022-10-16T23:37:16;100924.88;;;18.41;85.03
50087;BME280;35967;50.718;7.050;2022-10-16T23:47:21;100932.38;;;18.47;85.45
50087;BME280;35967;50.718;7.050;2022-10-16T23:57:24;100944.34;;;18.51;85.39
